createdAt,value
2023-05-10T00:00:25.068Z,11.1
2023-05-10T00:04:31.200Z,14.9
2023-05-10T00:08:34.110Z,11.8
2023-05-10T00:10:35.499Z,12.9
2023-05-10T00:14:38.381Z,12.7
2023-05-10T00:16:39.841Z,13.6
2023-05-10T00:20:45.962Z,14.3
2023-05-10T00:22:47.379Z,13.9
2023-05-10T00:24:48.798Z,16
2023-05-10T00:26:50.226Z,14.1
2023-05-10T00:28:51.626Z,13.5
2023-05-10T00:30:53.090Z,12.3
2023-05-10T00:32:57.843Z,19.3
2023-05-10T00:34:59.227Z,16.6
2023-05-10T00:37:00.660Z,15.4
2023-05-10T00:41:03.508Z,14.3
2023-05-10T00:43:04.945Z,18.4
2023-05-10T00:45:06.355Z,17.2
2023-05-10T00:47:11.068Z,20.6
2023-05-10T00:49:12.535Z,19.3
2023-05-10T01:00:25.345Z,21.8
2023-05-10T01:02:26.856Z,16.3
2023-05-10T01:04:28.216Z,20.7
2023-05-10T01:06:29.617Z,21.5
2023-05-10T01:08:30.989Z,23.1
2023-05-10T01:10:32.454Z,20.9
2023-05-10T01:12:33.931Z,23.3
2023-05-10T01:14:38.611Z,23.5
2023-05-10T01:16:40.063Z,24.3
2023-05-10T01:18:41.496Z,20.3
2023-05-10T01:20:42.895Z,23.4
2023-05-10T01:24:45.775Z,21.9
2023-05-10T01:26:47.198Z,26.7
2023-05-10T01:28:51.967Z,23.4
2023-05-10T01:32:54.824Z,27
2023-05-10T01:34:56.226Z,23
2023-05-10T01:38:59.038Z,26
2023-05-10T01:41:00.477Z,22.2
2023-05-10T01:45:06.645Z,23.6
2023-05-10T01:47:08.035Z,23.5
2023-05-10T01:48:10.527Z,23.6
2023-05-10T01:50:11.860Z,24.3
2023-05-10T01:52:13.258Z,23.8
2023-05-10T01:56:19.423Z,23.8
2023-05-10T01:58:20.857Z,27.2
2023-05-10T02:00:22.279Z,25.3
2023-05-10T02:02:23.844Z,26.1
2023-05-10T02:04:25.142Z,24.2
2023-05-10T02:06:26.590Z,26.2
2023-05-10T02:08:28.007Z,26.9
2023-05-10T02:10:34.253Z,29.4
2023-05-10T02:12:35.705Z,27.9
2023-05-10T02:14:37.130Z,25.3
2023-05-10T02:16:38.554Z,27.1
2023-05-10T02:18:39.979Z,29.1
2023-05-10T02:20:41.376Z,26.3
2023-05-10T02:24:47.598Z,30.2
2023-05-10T02:26:48.984Z,27
2023-05-10T02:30:51.824Z,31.9
2023-05-10T02:32:53.305Z,30.5
2023-05-10T02:34:54.703Z,32.1
2023-05-10T02:36:56.169Z,34.4
2023-05-10T02:43:03.659Z,28.7
2023-05-10T02:44:06.075Z,30.4
2023-05-10T02:46:07.491Z,31.2
2023-05-10T02:48:08.894Z,27.8
2023-05-10T02:50:10.319Z,28.4
2023-05-10T02:52:15.065Z,32.8
2023-05-10T02:56:17.903Z,30.9
2023-05-10T02:58:19.317Z,31
2023-05-10T03:00:20.727Z,32.3
2023-05-10T03:02:22.198Z,24.1
2023-05-10T03:04:23.679Z,26.7
2023-05-10T03:06:28.312Z,30.4
2023-05-10T03:10:31.116Z,29.4
2023-05-10T03:14:33.940Z,29.2
2023-05-10T03:16:35.449Z,30.2
2023-05-10T03:18:36.796Z,30.2
2023-05-10T03:20:41.498Z,28.6
2023-05-10T03:22:42.966Z,30
2023-05-10T03:24:44.399Z,32
2023-05-10T03:26:45.798Z,28.3
2023-05-10T03:28:47.219Z,30.4
2023-05-10T03:30:48.645Z,34.5
2023-05-10T03:32:50.031Z,31.7
2023-05-10T03:34:54.770Z,31.8
2023-05-10T03:36:56.178Z,30.9
2023-05-10T03:38:57.615Z,28.7
2023-05-10T03:41:20.745Z,33.5
2023-05-10T03:43:22.144Z,28.9
2023-05-10T03:45:23.581Z,27
2023-05-10T03:49:29.738Z,34.1
2023-05-10T03:57:35.492Z,27.4
2023-05-10T03:59:36.878Z,27.9
2023-05-10T04:01:41.654Z,23.2
2023-05-10T04:05:44.472Z,26.3
2023-05-10T04:07:45.926Z,26.9
2023-05-10T04:09:47.318Z,21.6
2023-05-10T04:24:00.626Z,25
2023-05-10T04:32:09.656Z,28.7
2023-05-10T04:35:13.411Z,28.7
2023-05-10T04:37:14.878Z,28
2023-05-10T04:43:22.467Z,26.3
2023-05-10T04:45:23.881Z,23.4
2023-05-10T04:49:26.709Z,26.3
2023-05-10T04:53:29.559Z,24.3
2023-05-10T04:55:31.014Z,25.5
2023-05-10T04:57:35.816Z,30.7
2023-05-10T04:59:37.128Z,23.9
2023-05-10T05:01:38.657Z,25.8
2023-05-10T05:03:40.111Z,21.8
2023-05-10T05:05:41.421Z,24.7
2023-05-10T05:07:42.851Z,26.4
2023-05-10T05:09:44.256Z,24.7
2023-05-10T05:19:54.708Z,23.7
2023-05-10T05:21:56.168Z,27.7
2023-05-10T05:23:57.555Z,23.3
2023-05-10T05:26:02.296Z,24.1
2023-05-10T05:28:03.700Z,28.1
2023-05-10T05:35:10.329Z,22.2
2023-05-10T05:37:11.777Z,24.2
2023-05-10T05:41:17.975Z,27.5
2023-05-10T05:43:19.346Z,25.3
2023-05-10T05:45:20.792Z,21
2023-05-10T05:51:25.068Z,22.7
2023-05-10T05:55:31.194Z,27.4
2023-05-10T05:57:32.617Z,25.1
2023-05-10T05:59:34.030Z,24.4
2023-05-10T06:03:36.996Z,25.6
2023-05-10T06:05:38.334Z,21.3
2023-05-10T06:07:43.058Z,21.4
2023-05-10T06:09:44.467Z,24.5
2023-05-10T06:11:45.916Z,25.1
2023-05-10T06:15:48.720Z,18.9
2023-05-10T06:17:50.169Z,20.9
2023-05-10T06:19:51.551Z,18.5
2023-05-10T06:21:56.316Z,27.7
2023-05-10T06:23:57.740Z,23.3
2023-05-10T06:31:04.444Z,26.9
2023-05-10T06:33:05.880Z,21.9
2023-05-10T07:09:41.316Z,26.3
2023-05-10T07:13:44.165Z,23.3
2023-05-10T07:15:45.623Z,24.2
2023-05-10T07:17:50.362Z,22.7
2023-05-10T07:19:51.723Z,24.3
2023-05-10T07:21:53.095Z,20.4
2023-05-10T07:24:21.977Z,23.2
2023-05-10T07:26:23.368Z,18.9
2023-05-10T07:28:24.818Z,21.2
2023-05-10T07:30:29.562Z,20.1
2023-05-10T07:32:30.996Z,21.6
2023-05-10T07:34:32.379Z,17.8
2023-05-10T07:36:33.790Z,21.1
2023-05-10T07:38:35.197Z,21
2023-05-10T07:40:36.614Z,22.9
2023-05-10T07:42:38.075Z,20.9
2023-05-10T07:44:42.778Z,22.1
2023-05-10T07:46:44.206Z,21.9
2023-05-10T07:50:47.025Z,23.3
2023-05-10T07:52:48.434Z,22.5
2023-05-10T07:54:49.899Z,22.4
2023-05-10T07:58:57.596Z,20.9
2023-05-10T08:00:59.008Z,25
2023-05-10T08:03:00.623Z,21.9
2023-05-10T08:05:01.844Z,21.3
2023-05-10T08:07:03.268Z,22.5
2023-05-10T08:09:04.641Z,24.1
2023-05-10T08:11:06.068Z,23.1
2023-05-10T08:13:10.814Z,16.3
2023-05-10T08:15:12.276Z,22.5
2023-05-10T08:17:13.677Z,21.2
2023-05-10T08:18:16.051Z,20.7
2023-05-10T08:24:20.272Z,19
2023-05-10T08:26:24.956Z,16.7
2023-05-10T08:28:26.469Z,20.3
2023-05-10T08:36:32.032Z,13.2
2023-05-10T08:38:33.467Z,17.8
2023-05-10T08:40:38.184Z,15.5
2023-05-10T08:42:39.571Z,19.3
2023-05-10T08:44:41.022Z,16.6
2023-05-10T08:50:45.267Z,14.2
2023-05-10T08:54:51.408Z,16.1
2023-05-10T09:00:55.764Z,14.2
2023-05-10T09:02:57.135Z,10
2023-05-10T09:06:59.900Z,12.4
2023-05-10T09:09:04.637Z,12.4
2023-05-10T09:14:09.848Z,10.3
2023-05-10T09:18:12.724Z,9.3
2023-05-10T09:34:27.284Z,9.3
2023-05-10T09:40:34.868Z,10.5
2023-05-10T09:42:36.261Z,10.5
2023-05-10T09:46:39.181Z,10.5
2023-05-10T09:48:40.476Z,8.8
2023-05-10T09:50:45.228Z,7.9
2023-05-10T09:54:48.091Z,10.9
2023-05-10T09:56:49.485Z,8.8
2023-05-10T09:58:50.859Z,8.8
2023-05-10T10:00:52.362Z,10.7
2023-05-10T10:02:53.794Z,11.2
2023-05-10T10:04:58.500Z,11
2023-05-10T10:06:59.899Z,9.3
2023-05-10T10:10:03.614Z,10.3
2023-05-10T10:12:05.054Z,9
2023-05-10T10:14:06.433Z,9.5
2023-05-10T10:16:07.924Z,9.6
2023-05-10T10:20:14.293Z,9.6
2023-05-10T10:22:15.418Z,10.6
2023-05-10T10:24:16.829Z,8
2023-05-10T10:26:18.280Z,9.6
2023-05-10T10:28:19.705Z,8.8
2023-05-10T10:30:21.078Z,10.1
2023-05-10T10:32:25.869Z,8.6
2023-05-10T10:34:27.205Z,11.2
2023-05-10T10:36:28.636Z,11.1
2023-05-10T10:38:30.052Z,10.3
2023-05-10T10:42:32.853Z,11.2
2023-05-10T10:44:34.337Z,10.4
2023-05-10T10:46:39.094Z,10.4
2023-05-10T11:04:55.013Z,9.2
2023-05-10T11:07:23.660Z,8.2
2023-05-10T11:09:25.052Z,11.4
2023-05-10T11:11:26.455Z,8.4
2023-05-10T11:15:32.592Z,5.4
2023-05-10T11:27:44.285Z,7.8
2023-05-10T11:29:45.704Z,5.7
2023-05-10T11:50:02.991Z,4.4
2023-05-10T11:52:04.340Z,6.2
2023-05-10T11:58:11.845Z,4
2023-05-10T12:00:13.262Z,2.6
2023-05-10T12:01:15.462Z,4.2
2023-05-10T12:03:17.024Z,3.7
2023-05-10T12:05:18.238Z,3.8
2023-05-10T12:07:19.667Z,3.6
2023-05-10T12:09:39.728Z,2.3
2023-05-10T12:11:25.717Z,3.2
2023-05-10T12:13:27.065Z,4
2023-05-10T12:15:28.342Z,3.2
2023-05-10T12:17:29.651Z,3
2023-05-10T12:19:30.929Z,3.4
2023-05-10T12:21:32.259Z,3
2023-05-10T12:29:42.718Z,2.9
2023-05-10T12:31:42.215Z,2.3
2023-05-10T12:33:43.524Z,3.4
2023-05-10T12:35:44.816Z,3.7
2023-05-10T12:37:49.503Z,2.8
2023-05-10T12:39:50.875Z,3.4
2023-05-10T12:41:52.138Z,4
2023-05-10T12:43:53.523Z,4.3
2023-05-10T12:45:54.954Z,3.4
2023-05-10T12:47:56.294Z,3.8
2023-05-10T12:49:57.556Z,3.4
2023-05-10T12:52:02.258Z,4.3
2023-05-10T12:54:03.649Z,5.2
2023-05-10T12:56:04.988Z,3.5
2023-05-10T12:57:07.338Z,4.1
2023-05-10T12:59:08.703Z,4.7
2023-05-10T13:03:11.275Z,5.2
2023-05-10T13:09:18.532Z,3.6
2023-05-10T13:11:19.892Z,5.1
2023-05-10T13:13:21.269Z,4.3
2023-05-10T13:29:35.312Z,4.3
2023-05-10T13:31:36.733Z,4.4
2023-05-10T13:35:42.643Z,5
2023-05-10T13:37:43.910Z,4.3
2023-05-10T13:39:45.249Z,4.9
2023-05-10T13:41:46.533Z,5.2
2023-05-10T13:45:49.161Z,4.5
2023-05-10T14:07:12.570Z,4.3
2023-05-10T14:09:13.824Z,4.3
2023-05-10T14:13:16.324Z,3.5
2023-05-10T14:15:20.799Z,3.1
2023-05-10T14:17:22.123Z,2.9
2023-05-10T14:21:24.696Z,4.2
2023-05-10T14:23:26.046Z,4.3
2023-05-10T14:25:27.266Z,4
2023-05-10T14:27:28.527Z,3.5
2023-05-10T14:29:33.004Z,3.2
2023-05-10T14:39:39.268Z,1.8
2023-05-10T14:41:40.468Z,2.8
2023-05-10T14:45:46.397Z,2
2023-05-10T14:47:47.636Z,2.7
2023-05-10T14:50:28.294Z,2.1
2023-05-10T15:04:29.173Z,3.4
2023-05-10T15:06:30.079Z,3.9
2023-05-10T15:10:36.180Z,4.3
2023-05-10T15:12:37.537Z,2.6
2023-05-10T15:14:38.951Z,3.7
2023-05-10T15:16:40.355Z,3.2
2023-05-10T15:18:41.794Z,2.6
2023-05-10T15:20:43.140Z,3.8
2023-05-10T15:24:49.235Z,3.4
2023-05-10T15:26:50.650Z,3.7
2023-05-10T15:28:52.059Z,3
2023-05-10T15:30:53.436Z,3.1
2023-05-10T15:32:54.868Z,2.8
2023-05-10T15:34:56.255Z,4
2023-05-10T15:36:57.669Z,3.5
2023-05-10T15:39:02.373Z,3.5
2023-05-10T15:41:03.799Z,3.1
2023-05-10T15:43:05.227Z,3.5
2023-05-10T15:44:07.568Z,2.4
2023-05-10T15:46:09.027Z,3.2
2023-05-10T15:48:10.460Z,3.6
2023-05-10T15:50:11.848Z,3.9
2023-05-10T15:52:16.565Z,3.5
2023-05-10T15:54:17.959Z,3.7
2023-05-10T15:58:20.788Z,3.5
2023-05-10T16:00:22.221Z,4.9
2023-05-10T16:04:25.030Z,3.8
2023-05-10T16:06:29.800Z,5.2
2023-05-10T16:10:32.584Z,3
2023-05-10T16:12:33.990Z,4.3
2023-05-10T16:14:35.422Z,4.9
2023-05-10T16:16:36.964Z,4.9
2023-05-10T16:18:38.349Z,4.6
2023-05-10T16:20:42.977Z,4.9
2023-05-10T16:24:45.816Z,4.5
2023-05-10T16:26:47.196Z,6.2
2023-05-10T16:28:48.668Z,5
2023-05-10T16:30:50.131Z,4.8
2023-05-10T16:34:56.184Z,5.7
2023-05-10T16:36:57.639Z,6.3
2023-05-10T16:40:01.512Z,6.4
2023-05-10T16:42:02.822Z,7.3
2023-05-10T16:44:04.228Z,6.7
2023-05-10T16:46:05.678Z,6.8
2023-05-10T16:48:10.364Z,6.4
2023-05-10T16:50:11.777Z,5.4
2023-05-10T16:52:13.184Z,5.9
2023-05-10T17:02:23.606Z,6.9
2023-05-10T17:08:27.805Z,6.5
2023-05-10T17:12:30.639Z,6.9
2023-05-10T17:14:32.069Z,8
2023-05-10T17:16:36.822Z,7.9
2023-05-10T17:20:39.625Z,7.6
2023-05-10T17:35:55.155Z,8.4
2023-05-10T17:37:56.588Z,7.2
2023-05-10T17:39:58.039Z,7.7
2023-05-10T17:41:59.391Z,6.9
2023-05-10T17:44:04.089Z,8.8
2023-05-10T17:46:05.569Z,6.6
2023-05-10T17:48:07.482Z,7.6
2023-05-10T17:50:08.813Z,7.8
2023-05-10T17:52:10.258Z,7.8
2023-05-10T17:54:11.655Z,8.3
2023-05-10T17:56:13.048Z,8.4
2023-05-10T17:58:17.784Z,7.2
2023-05-10T18:00:19.187Z,8.1
2023-05-10T18:02:20.704Z,8.1
2023-05-10T18:04:22.101Z,7.8
2023-05-10T18:06:23.469Z,9.2
2023-05-10T18:08:24.883Z,9.4
2023-05-10T18:10:26.262Z,7.4
2023-05-10T18:12:31.015Z,7.8
2023-05-10T18:14:40.730Z,8.1
2023-05-10T18:16:33.902Z,9.3
2023-05-10T18:18:35.270Z,8.4
2023-05-10T18:20:36.682Z,8
2023-05-10T18:22:38.098Z,7.9
2023-05-10T18:24:40.345Z,8.5
2023-05-10T18:26:44.252Z,8.4
2023-05-10T18:30:47.123Z,9.1
2023-05-10T18:35:11.235Z,8.1
2023-05-10T18:37:12.632Z,6.6
2023-05-10T18:39:17.326Z,8
2023-05-10T18:41:18.753Z,8.7
2023-05-10T18:43:20.137Z,8.3
2023-05-10T18:45:21.587Z,9.7
2023-05-10T18:47:23.046Z,9.9
2023-05-10T18:49:24.410Z,8.8
2023-05-10T18:51:25.838Z,10.6
2023-05-10T18:53:30.616Z,9.8
2023-05-10T18:55:31.993Z,9.8
2023-05-10T18:57:33.400Z,10.1
2023-05-10T18:59:34.781Z,8.1
2023-05-10T19:01:36.253Z,8.9
2023-05-10T19:03:37.645Z,7.2
2023-05-10T19:05:39.068Z,10.5
2023-05-10T19:07:43.802Z,7.9
2023-05-10T19:09:45.210Z,10.1
2023-05-10T19:11:46.619Z,11
2023-05-10T19:15:49.520Z,10.2
2023-05-10T19:17:51.544Z,10
2023-05-10T19:21:57.083Z,10.1
2023-05-10T19:23:58.577Z,10.8
2023-05-10T19:25:59.941Z,11
2023-05-10T19:27:02.334Z,9.6
2023-05-10T19:43:18.433Z,12.6
2023-05-10T19:55:30.299Z,14.8
2023-05-10T19:57:31.714Z,11.4
2023-05-10T19:59:33.138Z,12.6
2023-05-10T20:01:34.658Z,12.7
2023-05-10T20:03:39.331Z,12.5
2023-05-10T20:05:40.667Z,13.3
2023-05-10T20:09:43.536Z,14.1
2023-05-10T20:11:44.944Z,13.4
2023-05-10T20:13:46.394Z,12.8
2023-05-10T20:15:47.821Z,11.1
2023-05-10T20:17:52.539Z,14.7
2023-05-10T20:19:53.981Z,12.6
2023-05-10T20:21:55.380Z,11.8
2023-05-10T20:22:57.724Z,14.5
2023-05-10T20:27:00.599Z,11.4
2023-05-10T20:29:02.024Z,11.5
2023-05-10T20:31:06.784Z,15.2
2023-05-10T20:33:08.187Z,13.1
2023-05-10T20:37:11.050Z,11.6
2023-05-10T20:43:15.301Z,13.1
2023-05-10T20:45:20.014Z,11.5
2023-05-10T20:47:21.419Z,14.2
2023-05-10T20:51:24.263Z,12.4
2023-05-10T20:53:25.686Z,13
2023-05-10T20:59:33.220Z,12.5
2023-05-10T21:05:37.510Z,11.7
2023-05-10T21:09:40.366Z,15.1
2023-05-10T21:11:41.803Z,12.7
2023-05-10T21:15:47.945Z,14.1
2023-05-10T21:17:49.410Z,14.8
2023-05-10T21:18:51.738Z,13.3
2023-05-10T21:27:00.689Z,16.2
2023-05-10T21:29:02.112Z,14.2
2023-05-10T21:31:03.554Z,13.1
2023-05-10T21:33:04.991Z,12.1
2023-05-10T21:39:09.211Z,12.4
2023-05-10T21:43:15.386Z,14.2
2023-05-10T21:45:16.767Z,13.1
2023-05-10T21:47:18.239Z,13
2023-05-10T21:49:19.635Z,14.8
2023-05-10T21:51:21.078Z,11.7
2023-05-10T21:53:22.525Z,13.7
2023-05-10T21:55:27.217Z,15
2023-05-10T21:57:28.674Z,14.1
2023-05-10T21:59:30.092Z,15.8
2023-05-10T22:01:31.546Z,14
2023-05-10T22:03:33.057Z,12.9
2023-05-10T22:05:34.374Z,14.1
2023-05-10T22:09:40.518Z,14.5
2023-05-10T22:11:41.946Z,13.4
2023-05-10T22:13:43.363Z,15.1
2023-05-10T22:16:04.257Z,16.5
2023-05-10T22:18:05.721Z,13.7
2023-05-10T22:20:07.129Z,16
2023-05-10T22:22:11.862Z,17.9
2023-05-10T22:44:30.876Z,17.1
2023-05-10T22:46:32.318Z,14.5
2023-05-10T22:48:33.722Z,15.2
2023-05-10T22:50:38.463Z,18.9
2023-05-10T22:52:39.920Z,19.4
2023-05-10T22:54:41.290Z,16.5
2023-05-10T22:56:42.767Z,19.3
2023-05-10T22:58:44.173Z,17.5
2023-05-10T23:00:45.578Z,18
2023-05-10T23:02:47.083Z,16.2
2023-05-10T23:04:51.723Z,19.1
2023-05-10T23:09:56.955Z,18.6
2023-05-10T23:11:58.353Z,17.8
2023-05-10T23:13:59.797Z,18
2023-05-10T23:16:01.246Z,16.9
2023-05-10T23:18:06.133Z,15.4
2023-05-10T23:22:08.798Z,14.6
2023-05-10T23:24:10.295Z,17.5
2023-05-10T23:28:13.082Z,16.1
2023-05-10T23:30:14.669Z,17.7
2023-05-10T23:32:19.260Z,15.7
2023-05-10T23:34:20.676Z,17.5
2023-05-10T23:36:22.073Z,18.1
2023-05-10T23:38:23.480Z,16.1
2023-05-10T23:40:24.895Z,16.5
2023-05-10T23:42:26.362Z,16.2
2023-05-10T23:44:27.769Z,16
2023-05-10T23:46:32.485Z,17.6
2023-05-10T23:48:33.953Z,17.7
2023-05-10T23:50:35.393Z,19.3
2023-05-10T23:52:36.765Z,17.4
2023-05-10T23:54:38.207Z,17.4
2023-05-10T23:56:39.650Z,15.5
